sensor_id;sensor_type;location;lat;lon;timestamp;P1;durP1;ratioP1;P2;durP2;ratioP2
2966;SDS011;1493;51.496;7.210;2023-06-19T00:01:30;6.20;;;4.37;;
2966;SDS011;1493;51.496;7.210;2023-06-19T00:04:02;6.13;;;4.40;;
2966;SDS011;1493;51.496;7.210;2023-06-19T00:06:50;6.80;;;4.60;;
2966;SDS011;1493;51.496;7.210;2023-06-19T00:09:51;5.10;;;4.13;;
2966;SDS011;1493;51.496;7.210;2023-06-19T00:12:26;4.90;;;4.40;;
2966;SDS011;1493;51.496;7.210;2023-06-19T00:15:13;6.10;;;4.67;;
2966;SDS011;1493;51.496;7.210;2023-06-19T00:23:52;5.33;;;4.80;;
2966;SDS011;1493;51.496;7.210;2023-06-19T00:26:20;5.80;;;4.90;;
2966;SDS011;1493;51.496;7.210;2023-06-19T00:29:02;5.10;;;4.10;;
2966;SDS011;1493;51.496;7.210;2023-06-19T00:31:37;5.90;;;4.43;;
2966;SDS011;1493;51.496;7.210;2023-06-19T00:34:09;4.93;;;4.20;;
2966;SDS011;1493;51.496;7.210;2023-06-19T00:36:40;5.10;;;4.60;;
2966;SDS011;1493;51.496;7.210;2023-06-19T00:39:13;5.13;;;4.63;;
2966;SDS011;1493;51.496;7.210;2023-06-19T00:41:49;5.37;;;4.60;;
2966;SDS011;1493;51.496;7.210;2023-06-19T00:44:21;5.30;;;4.47;;
2966;SDS011;1493;51.496;7.210;2023-06-19T00:46:49;5.90;;;4.40;;
2966;SDS011;1493;51.496;7.210;2023-06-19T00:49:28;5.03;;;4.53;;
2966;SDS011;1493;51.496;7.210;2023-06-19T00:52:04;5.33;;;4.67;;
2966;SDS011;1493;51.496;7.210;2023-06-19T00:54:34;4.97;;;4.40;;
2966;SDS011;1493;51.496;7.210;2023-06-19T00:57:05;5.53;;;4.43;;
2966;SDS011;1493;51.496;7.210;2023-06-19T00:59:49;8.10;;;4.53;;
2966;SDS011;1493;51.496;7.210;2023-06-19T01:02:20;5.67;;;4.10;;
2966;SDS011;1493;51.496;7.210;2023-06-19T01:04:53;5.50;;;4.37;;
2966;SDS011;1493;51.496;7.210;2023-06-19T01:07:25;4.97;;;4.47;;
2966;SDS011;1493;51.496;7.210;2023-06-19T01:09:59;6.20;;;5.50;;
2966;SDS011;1493;51.496;7.210;2023-06-19T01:12:32;5.00;;;4.50;;
2966;SDS011;1493;51.496;7.210;2023-06-19T01:15:05;5.50;;;4.77;;
2966;SDS011;1493;51.496;7.210;2023-06-19T01:17:38;4.87;;;4.37;;
2966;SDS011;1493;51.496;7.210;2023-06-19T01:20:24;5.23;;;4.50;;
2966;SDS011;1493;51.496;7.210;2023-06-19T01:23:07;5.00;;;4.50;;
2966;SDS011;1493;51.496;7.210;2023-06-19T01:25:54;4.90;;;4.00;;
2966;SDS011;1493;51.496;7.210;2023-06-19T01:28:23;4.90;;;4.10;;
2966;SDS011;1493;51.496;7.210;2023-06-19T01:34:50;4.50;;;3.90;;
2966;SDS011;1493;51.496;7.210;2023-06-19T01:40:51;5.20;;;4.57;;
2966;SDS011;1493;51.496;7.210;2023-06-19T01:43:28;5.37;;;4.63;;
2966;SDS011;1493;51.496;7.210;2023-06-19T01:45:58;5.60;;;4.47;;
2966;SDS011;1493;51.496;7.210;2023-06-19T01:48:28;5.00;;;4.40;;
2966;SDS011;1493;51.496;7.210;2023-06-19T01:53:51;5.13;;;4.47;;
2966;SDS011;1493;51.496;7.210;2023-06-19T01:57:15;6.43;;;4.90;;
2966;SDS011;1493;51.496;7.210;2023-06-19T01:59:43;7.33;;;4.60;;
2966;SDS011;1493;51.496;7.210;2023-06-19T02:02:15;4.80;;;3.90;;
2966;SDS011;1493;51.496;7.210;2023-06-19T02:04:51;5.27;;;4.40;;
2966;SDS011;1493;51.496;7.210;2023-06-19T02:11:14;4.90;;;3.93;;
2966;SDS011;1493;51.496;7.210;2023-06-19T02:13:33;4.97;;;4.33;;
2966;SDS011;1493;51.496;7.210;2023-06-19T02:16:02;5.03;;;4.53;;
2966;SDS011;1493;51.496;7.210;2023-06-19T02:18:30;4.80;;;4.30;;
2966;SDS011;1493;51.496;7.210;2023-06-19T02:21:01;5.17;;;4.40;;
2966;SDS011;1493;51.496;7.210;2023-06-19T02:23:28;7.10;;;4.60;;
2966;SDS011;1493;51.496;7.210;2023-06-19T02:25:55;5.70;;;4.40;;
2966;SDS011;1493;51.496;7.210;2023-06-19T02:28:30;4.80;;;4.20;;
2966;SDS011;1493;51.496;7.210;2023-06-19T02:31:00;5.77;;;4.80;;
2966;SDS011;1493;51.496;7.210;2023-06-19T02:33:29;6.03;;;4.10;;
2966;SDS011;1493;51.496;7.210;2023-06-19T02:35:59;4.87;;;4.37;;
2966;SDS011;1493;51.496;7.210;2023-06-19T02:38:29;4.93;;;4.43;;
2966;SDS011;1493;51.496;7.210;2023-06-19T02:41:16;5.37;;;4.60;;
2966;SDS011;1493;51.496;7.210;2023-06-19T02:43:50;5.20;;;4.37;;
2966;SDS011;1493;51.496;7.210;2023-06-19T02:52:51;5.77;;;5.17;;
2966;SDS011;1493;51.496;7.210;2023-06-19T02:55:28;6.10;;;4.60;;
2966;SDS011;1493;51.496;7.210;2023-06-19T02:58:28;5.57;;;4.60;;
2966;SDS011;1493;51.496;7.210;2023-06-19T03:01:27;5.63;;;4.70;;
2966;SDS011;1493;51.496;7.210;2023-06-19T03:04:05;5.60;;;4.80;;
2966;SDS011;1493;51.496;7.210;2023-06-19T03:07:10;5.90;;;4.37;;
2966;SDS011;1493;51.496;7.210;2023-06-19T03:09:49;6.30;;;5.30;;
2966;SDS011;1493;51.496;7.210;2023-06-19T03:16:03;5.57;;;4.83;;
2966;SDS011;1493;51.496;7.210;2023-06-19T03:28:23;5.53;;;4.60;;
2966;SDS011;1493;51.496;7.210;2023-06-19T03:30:51;7.27;;;4.70;;
2966;SDS011;1493;51.496;7.210;2023-06-19T03:33:25;6.20;;;4.10;;
2966;SDS011;1493;51.496;7.210;2023-06-19T03:35:52;6.27;;;4.33;;
2966;SDS011;1493;51.496;7.210;2023-06-19T03:38:23;6.93;;;4.20;;
2966;SDS011;1493;51.496;7.210;2023-06-19T03:40:50;5.33;;;3.80;;
2966;SDS011;1493;51.496;7.210;2023-06-19T03:43:17;6.23;;;4.00;;
2966;SDS011;1493;51.496;7.210;2023-06-19T03:45:45;4.93;;;4.40;;
2966;SDS011;1493;51.496;7.210;2023-06-19T03:48:12;4.63;;;3.93;;
2966;SDS011;1493;51.496;7.210;2023-06-19T03:50:39;6.30;;;3.53;;
2966;SDS011;1493;51.496;7.210;2023-06-19T03:53:05;6.00;;;4.57;;
2966;SDS011;1493;51.496;7.210;2023-06-19T03:55:32;5.93;;;4.47;;
2966;SDS011;1493;51.496;7.210;2023-06-19T03:57:59;4.70;;;3.97;;
2966;SDS011;1493;51.496;7.210;2023-06-19T04:00:26;6.93;;;4.57;;
2966;SDS011;1493;51.496;7.210;2023-06-19T04:02:54;5.63;;;3.83;;
2966;SDS011;1493;51.496;7.210;2023-06-19T04:05:21;5.43;;;3.77;;
2966;SDS011;1493;51.496;7.210;2023-06-19T04:07:48;5.93;;;3.90;;
2966;SDS011;1493;51.496;7.210;2023-06-19T04:10:15;5.60;;;4.07;;
2966;SDS011;1493;51.496;7.210;2023-06-19T04:12:42;4.50;;;3.43;;
2966;SDS011;1493;51.496;7.210;2023-06-19T04:15:10;7.00;;;3.30;;
2966;SDS011;1493;51.496;7.210;2023-06-19T04:17:37;7.00;;;2.97;;
2966;SDS011;1493;51.496;7.210;2023-06-19T04:20:06;5.50;;;3.80;;
2966;SDS011;1493;51.496;7.210;2023-06-19T04:22:36;4.30;;;3.17;;
2966;SDS011;1493;51.496;7.210;2023-06-19T04:25:03;4.93;;;3.30;;
2966;SDS011;1493;51.496;7.210;2023-06-19T04:27:31;4.53;;;3.97;;
2966;SDS011;1493;51.496;7.210;2023-06-19T04:29:57;3.27;;;2.60;;
2966;SDS011;1493;51.496;7.210;2023-06-19T04:32:24;3.60;;;2.80;;
2966;SDS011;1493;51.496;7.210;2023-06-19T04:34:51;3.97;;;2.43;;
2966;SDS011;1493;51.496;7.210;2023-06-19T04:37:19;4.33;;;3.10;;
2966;SDS011;1493;51.496;7.210;2023-06-19T04:39:46;3.90;;;2.83;;
2966;SDS011;1493;51.496;7.210;2023-06-19T04:42:13;4.30;;;2.80;;
2966;SDS011;1493;51.496;7.210;2023-06-19T04:44:44;4.23;;;3.17;;
2966;SDS011;1493;51.496;7.210;2023-06-19T04:47:11;4.37;;;2.80;;
2966;SDS011;1493;51.496;7.210;2023-06-19T04:49:38;6.90;;;3.13;;
2966;SDS011;1493;51.496;7.210;2023-06-19T04:52:05;4.97;;;2.70;;
2966;SDS011;1493;51.496;7.210;2023-06-19T04:54:34;5.93;;;2.60;;
2966;SDS011;1493;51.496;7.210;2023-06-19T04:57:00;5.97;;;3.40;;
2966;SDS011;1493;51.496;7.210;2023-06-19T04:59:27;4.90;;;2.90;;
2966;SDS011;1493;51.496;7.210;2023-06-19T05:01:55;6.33;;;3.10;;
2966;SDS011;1493;51.496;7.210;2023-06-19T05:04:22;3.20;;;2.60;;
2966;SDS011;1493;51.496;7.210;2023-06-19T05:06:49;4.90;;;3.03;;
2966;SDS011;1493;51.496;7.210;2023-06-19T05:09:16;5.33;;;3.50;;
2966;SDS011;1493;51.496;7.210;2023-06-19T05:11:44;4.10;;;2.53;;
2966;SDS011;1493;51.496;7.210;2023-06-19T05:14:11;5.03;;;2.60;;
2966;SDS011;1493;51.496;7.210;2023-06-19T05:16:39;4.97;;;3.10;;
2966;SDS011;1493;51.496;7.210;2023-06-19T05:19:06;5.03;;;2.40;;
2966;SDS011;1493;51.496;7.210;2023-06-19T05:21:33;3.43;;;2.43;;
2966;SDS011;1493;51.496;7.210;2023-06-19T05:23:59;4.63;;;2.63;;
2966;SDS011;1493;51.496;7.210;2023-06-19T05:26:26;4.23;;;2.77;;
2966;SDS011;1493;51.496;7.210;2023-06-19T05:28:54;3.17;;;2.53;;
2966;SDS011;1493;51.496;7.210;2023-06-19T05:31:21;3.67;;;2.50;;
2966;SDS011;1493;51.496;7.210;2023-06-19T05:33:48;3.30;;;2.37;;
2966;SDS011;1493;51.496;7.210;2023-06-19T05:36:15;4.40;;;3.83;;
2966;SDS011;1493;51.496;7.210;2023-06-19T05:38:42;4.13;;;2.27;;
2966;SDS011;1493;51.496;7.210;2023-06-19T05:41:11;4.40;;;2.67;;
2966;SDS011;1493;51.496;7.210;2023-06-19T05:43:41;3.50;;;2.40;;
2966;SDS011;1493;51.496;7.210;2023-06-19T05:46:09;3.40;;;2.20;;
2966;SDS011;1493;51.496;7.210;2023-06-19T05:48:37;3.27;;;2.27;;
2966;SDS011;1493;51.496;7.210;2023-06-19T05:51:03;3.10;;;2.43;;
2966;SDS011;1493;51.496;7.210;2023-06-19T05:53:30;3.73;;;2.03;;
2966;SDS011;1493;51.496;7.210;2023-06-19T05:55:59;3.50;;;2.30;;
2966;SDS011;1493;51.496;7.210;2023-06-19T05:58:26;2.93;;;2.00;;
2966;SDS011;1493;51.496;7.210;2023-06-19T06:00:53;3.87;;;2.87;;
2966;SDS011;1493;51.496;7.210;2023-06-19T06:03:24;3.77;;;2.50;;
2966;SDS011;1493;51.496;7.210;2023-06-19T06:05:51;3.37;;;2.27;;
2966;SDS011;1493;51.496;7.210;2023-06-19T06:08:18;5.90;;;3.23;;
2966;SDS011;1493;51.496;7.210;2023-06-19T06:10:44;5.20;;;2.70;;
2966;SDS011;1493;51.496;7.210;2023-06-19T06:13:13;5.70;;;2.40;;
2966;SDS011;1493;51.496;7.210;2023-06-19T06:15:40;3.53;;;2.30;;
2966;SDS011;1493;51.496;7.210;2023-06-19T06:18:06;4.67;;;2.40;;
2966;SDS011;1493;51.496;7.210;2023-06-19T06:20:35;5.50;;;2.40;;
2966;SDS011;1493;51.496;7.210;2023-06-19T06:23:01;3.53;;;2.10;;
2966;SDS011;1493;51.496;7.210;2023-06-19T06:25:28;3.43;;;2.93;;
2966;SDS011;1493;51.496;7.210;2023-06-19T06:27:57;3.90;;;2.30;;
2966;SDS011;1493;51.496;7.210;2023-06-19T06:30:24;4.50;;;2.80;;
2966;SDS011;1493;51.496;7.210;2023-06-19T06:32:52;2.90;;;2.00;;
2966;SDS011;1493;51.496;7.210;2023-06-19T06:35:19;5.80;;;2.13;;
2966;SDS011;1493;51.496;7.210;2023-06-19T06:37:47;4.37;;;2.30;;
2966;SDS011;1493;51.496;7.210;2023-06-19T06:40:15;4.07;;;2.60;;
2966;SDS011;1493;51.496;7.210;2023-06-19T06:42:41;3.83;;;2.43;;
2966;SDS011;1493;51.496;7.210;2023-06-19T06:45:09;6.20;;;2.40;;
2966;SDS011;1493;51.496;7.210;2023-06-19T06:47:36;3.37;;;2.10;;
2966;SDS011;1493;51.496;7.210;2023-06-19T06:50:05;3.73;;;2.57;;
2966;SDS011;1493;51.496;7.210;2023-06-19T06:52:32;3.60;;;2.83;;
2966;SDS011;1493;51.496;7.210;2023-06-19T06:55:00;3.03;;;2.43;;
2966;SDS011;1493;51.496;7.210;2023-06-19T06:57:27;3.43;;;2.53;;
2966;SDS011;1493;51.496;7.210;2023-06-19T06:59:54;4.23;;;2.37;;
2966;SDS011;1493;51.496;7.210;2023-06-19T07:02:21;6.03;;;2.43;;
2966;SDS011;1493;51.496;7.210;2023-06-19T07:04:49;4.00;;;2.00;;
2966;SDS011;1493;51.496;7.210;2023-06-19T07:07:16;3.43;;;2.20;;
2966;SDS011;1493;51.496;7.210;2023-06-19T07:09:43;4.90;;;2.60;;
2966;SDS011;1493;51.496;7.210;2023-06-19T07:12:11;5.90;;;2.60;;
2966;SDS011;1493;51.496;7.210;2023-06-19T07:14:38;4.00;;;2.53;;
2966;SDS011;1493;51.496;7.210;2023-06-19T07:17:04;3.67;;;1.93;;
2966;SDS011;1493;51.496;7.210;2023-06-19T07:19:32;4.97;;;2.10;;
2966;SDS011;1493;51.496;7.210;2023-06-19T07:21:59;3.60;;;2.30;;
2966;SDS011;1493;51.496;7.210;2023-06-19T07:24:25;3.30;;;1.87;;
2966;SDS011;1493;51.496;7.210;2023-06-19T07:26:52;4.80;;;2.47;;
2966;SDS011;1493;51.496;7.210;2023-06-19T07:29:21;3.17;;;2.17;;
2966;SDS011;1493;51.496;7.210;2023-06-19T07:31:48;3.53;;;2.50;;
2966;SDS011;1493;51.496;7.210;2023-06-19T07:34:15;2.80;;;1.83;;
2966;SDS011;1493;51.496;7.210;2023-06-19T07:36:41;4.70;;;2.20;;
2966;SDS011;1493;51.496;7.210;2023-06-19T07:39:08;3.87;;;2.30;;
2966;SDS011;1493;51.496;7.210;2023-06-19T07:41:35;3.97;;;2.10;;
2966;SDS011;1493;51.496;7.210;2023-06-19T07:44:02;3.10;;;2.20;;
2966;SDS011;1493;51.496;7.210;2023-06-19T07:46:30;5.10;;;3.90;;
2966;SDS011;1493;51.496;7.210;2023-06-19T07:48:57;5.03;;;2.60;;
2966;SDS011;1493;51.496;7.210;2023-06-19T07:51:24;3.73;;;2.30;;
2966;SDS011;1493;51.496;7.210;2023-06-19T07:53:51;4.00;;;2.10;;
2966;SDS011;1493;51.496;7.210;2023-06-19T07:56:18;3.30;;;1.90;;
2966;SDS011;1493;51.496;7.210;2023-06-19T07:58:44;4.17;;;2.20;;
2966;SDS011;1493;51.496;7.210;2023-06-19T08:01:12;3.53;;;2.30;;
2966;SDS011;1493;51.496;7.210;2023-06-19T08:03:41;3.40;;;1.83;;
2966;SDS011;1493;51.496;7.210;2023-06-19T08:06:08;6.70;;;3.20;;
2966;SDS011;1493;51.496;7.210;2023-06-19T08:08:35;2.93;;;2.20;;
2966;SDS011;1493;51.496;7.210;2023-06-19T08:11:02;2.60;;;2.00;;
2966;SDS011;1493;51.496;7.210;2023-06-19T08:13:29;3.70;;;2.63;;
2966;SDS011;1493;51.496;7.210;2023-06-19T08:15:55;2.83;;;1.53;;
2966;SDS011;1493;51.496;7.210;2023-06-19T08:18:22;5.03;;;2.27;;
2966;SDS011;1493;51.496;7.210;2023-06-19T08:20:50;3.03;;;2.00;;
2966;SDS011;1493;51.496;7.210;2023-06-19T08:23:17;5.53;;;2.30;;
2966;SDS011;1493;51.496;7.210;2023-06-19T08:25:44;2.80;;;2.30;;
2966;SDS011;1493;51.496;7.210;2023-06-19T08:28:11;3.40;;;2.83;;
2966;SDS011;1493;51.496;7.210;2023-06-19T08:30:38;3.00;;;1.90;;
2966;SDS011;1493;51.496;7.210;2023-06-19T08:33:04;4.47;;;2.00;;
2966;SDS011;1493;51.496;7.210;2023-06-19T08:35:31;4.10;;;2.60;;
2966;SDS011;1493;51.496;7.210;2023-06-19T08:37:59;4.83;;;2.80;;
2966;SDS011;1493;51.496;7.210;2023-06-19T08:40:26;2.93;;;2.27;;
2966;SDS011;1493;51.496;7.210;2023-06-19T08:42:53;2.53;;;1.97;;
2966;SDS011;1493;51.496;7.210;2023-06-19T08:45:21;3.70;;;2.23;;
2966;SDS011;1493;51.496;7.210;2023-06-19T08:47:48;4.23;;;2.70;;
2966;SDS011;1493;51.496;7.210;2023-06-19T08:50:15;3.13;;;2.37;;
2966;SDS011;1493;51.496;7.210;2023-06-19T08:52:42;4.33;;;2.17;;
2966;SDS011;1493;51.496;7.210;2023-06-19T08:55:10;5.00;;;2.80;;
2966;SDS011;1493;51.496;7.210;2023-06-19T08:57:37;3.30;;;2.40;;
2966;SDS011;1493;51.496;7.210;2023-06-19T09:00:05;2.70;;;1.70;;
2966;SDS011;1493;51.496;7.210;2023-06-19T09:02:39;3.10;;;1.80;;
2966;SDS011;1493;51.496;7.210;2023-06-19T09:05:11;3.17;;;2.30;;
2966;SDS011;1493;51.496;7.210;2023-06-19T09:07:40;3.27;;;1.80;;
2966;SDS011;1493;51.496;7.210;2023-06-19T09:10:15;2.60;;;1.93;;
2966;SDS011;1493;51.496;7.210;2023-06-19T09:12:44;3.83;;;2.03;;
2966;SDS011;1493;51.496;7.210;2023-06-19T09:15:21;3.77;;;2.00;;
2966;SDS011;1493;51.496;7.210;2023-06-19T09:17:53;5.43;;;2.23;;
2966;SDS011;1493;51.496;7.210;2023-06-19T09:20:27;4.23;;;1.87;;
2966;SDS011;1493;51.496;7.210;2023-06-19T09:22:54;3.90;;;1.90;;
2966;SDS011;1493;51.496;7.210;2023-06-19T09:25:22;4.27;;;2.00;;
2966;SDS011;1493;51.496;7.210;2023-06-19T09:27:51;3.33;;;1.80;;
2966;SDS011;1493;51.496;7.210;2023-06-19T09:30:18;3.60;;;1.93;;
2966;SDS011;1493;51.496;7.210;2023-06-19T09:32:46;4.20;;;2.13;;
2966;SDS011;1493;51.496;7.210;2023-06-19T09:35:13;5.53;;;3.13;;
2966;SDS011;1493;51.496;7.210;2023-06-19T09:37:40;3.67;;;1.63;;
2966;SDS011;1493;51.496;7.210;2023-06-19T09:40:07;4.00;;;2.60;;
2966;SDS011;1493;51.496;7.210;2023-06-19T09:42:37;5.17;;;2.70;;
2966;SDS011;1493;51.496;7.210;2023-06-19T09:45:05;4.70;;;2.53;;
2966;SDS011;1493;51.496;7.210;2023-06-19T09:47:35;3.80;;;2.27;;
2966;SDS011;1493;51.496;7.210;2023-06-19T09:50:03;2.90;;;2.27;;
2966;SDS011;1493;51.496;7.210;2023-06-19T09:52:32;2.93;;;2.10;;
2966;SDS011;1493;51.496;7.210;2023-06-19T09:55:01;5.00;;;2.17;;
2966;SDS011;1493;51.496;7.210;2023-06-19T09:57:29;3.83;;;2.00;;
2966;SDS011;1493;51.496;7.210;2023-06-19T09:59:58;3.77;;;2.50;;
2966;SDS011;1493;51.496;7.210;2023-06-19T10:02:34;5.17;;;3.10;;
2966;SDS011;1493;51.496;7.210;2023-06-19T10:05:02;4.10;;;2.63;;
2966;SDS011;1493;51.496;7.210;2023-06-19T10:07:32;4.90;;;2.40;;
2966;SDS011;1493;51.496;7.210;2023-06-19T10:10:00;4.30;;;2.63;;
2966;SDS011;1493;51.496;7.210;2023-06-19T10:12:37;3.40;;;2.40;;
2966;SDS011;1493;51.496;7.210;2023-06-19T10:15:15;3.47;;;2.50;;
2966;SDS011;1493;51.496;7.210;2023-06-19T10:17:44;5.30;;;2.60;;
2966;SDS011;1493;51.496;7.210;2023-06-19T10:20:22;3.50;;;2.80;;
2966;SDS011;1493;51.496;7.210;2023-06-19T10:22:51;4.73;;;2.60;;
2966;SDS011;1493;51.496;7.210;2023-06-19T10:25:20;6.33;;;2.87;;
2966;SDS011;1493;51.496;7.210;2023-06-19T10:27:47;4.97;;;3.00;;
2966;SDS011;1493;51.496;7.210;2023-06-19T10:30:18;5.20;;;3.13;;
2966;SDS011;1493;51.496;7.210;2023-06-19T10:32:45;5.33;;;2.57;;
2966;SDS011;1493;51.496;7.210;2023-06-19T10:35:13;3.63;;;2.70;;
2966;SDS011;1493;51.496;7.210;2023-06-19T10:37:41;4.23;;;2.50;;
2966;SDS011;1493;51.496;7.210;2023-06-19T10:40:09;4.40;;;2.67;;
2966;SDS011;1493;51.496;7.210;2023-06-19T10:42:37;4.20;;;2.90;;
2966;SDS011;1493;51.496;7.210;2023-06-19T10:45:05;3.60;;;2.93;;
2966;SDS011;1493;51.496;7.210;2023-06-19T10:47:37;4.30;;;3.00;;
2966;SDS011;1493;51.496;7.210;2023-06-19T10:50:05;8.57;;;3.03;;
2966;SDS011;1493;51.496;7.210;2023-06-19T10:52:35;5.10;;;3.00;;
2966;SDS011;1493;51.496;7.210;2023-06-19T10:55:03;4.63;;;3.00;;
2966;SDS011;1493;51.496;7.210;2023-06-19T10:57:31;6.27;;;2.77;;
2966;SDS011;1493;51.496;7.210;2023-06-19T10:59:58;5.53;;;3.50;;
2966;SDS011;1493;51.496;7.210;2023-06-19T11:02:25;7.13;;;2.50;;
2966;SDS011;1493;51.496;7.210;2023-06-19T11:04:53;7.60;;;2.97;;
2966;SDS011;1493;51.496;7.210;2023-06-19T11:07:21;6.83;;;2.60;;
2966;SDS011;1493;51.496;7.210;2023-06-19T11:09:48;4.80;;;2.93;;
2966;SDS011;1493;51.496;7.210;2023-06-19T11:12:18;4.57;;;3.67;;
2966;SDS011;1493;51.496;7.210;2023-06-19T11:14:46;7.20;;;4.00;;
2966;SDS011;1493;51.496;7.210;2023-06-19T11:17:14;6.30;;;3.57;;
2966;SDS011;1493;51.496;7.210;2023-06-19T11:19:40;5.90;;;3.63;;
2966;SDS011;1493;51.496;7.210;2023-06-19T11:22:10;3.83;;;2.80;;
2966;SDS011;1493;51.496;7.210;2023-06-19T11:24:42;6.23;;;3.60;;
2966;SDS011;1493;51.496;7.210;2023-06-19T11:27:16;6.23;;;3.20;;
2966;SDS011;1493;51.496;7.210;2023-06-19T11:29:44;4.17;;;2.73;;
2966;SDS011;1493;51.496;7.210;2023-06-19T11:32:13;5.10;;;3.07;;
2966;SDS011;1493;51.496;7.210;2023-06-19T11:34:40;7.67;;;3.23;;
2966;SDS011;1493;51.496;7.210;2023-06-19T11:37:13;3.93;;;2.80;;
2966;SDS011;1493;51.496;7.210;2023-06-19T11:39:41;4.30;;;3.07;;
2966;SDS011;1493;51.496;7.210;2023-06-19T11:42:10;5.47;;;3.50;;
2966;SDS011;1493;51.496;7.210;2023-06-19T11:44:51;5.90;;;3.33;;
2966;SDS011;1493;51.496;7.210;2023-06-19T11:47:19;5.30;;;4.03;;
2966;SDS011;1493;51.496;7.210;2023-06-19T11:49:47;7.00;;;4.00;;
2966;SDS011;1493;51.496;7.210;2023-06-19T11:52:15;4.60;;;3.37;;
2966;SDS011;1493;51.496;7.210;2023-06-19T11:54:43;4.83;;;3.40;;
2966;SDS011;1493;51.496;7.210;2023-06-19T11:57:09;4.00;;;3.13;;
2966;SDS011;1493;51.496;7.210;2023-06-19T11:59:38;5.00;;;3.40;;
2966;SDS011;1493;51.496;7.210;2023-06-19T12:02:05;3.50;;;2.97;;
2966;SDS011;1493;51.496;7.210;2023-06-19T12:04:32;6.40;;;3.37;;
2966;SDS011;1493;51.496;7.210;2023-06-19T12:06:59;4.93;;;3.20;;
2966;SDS011;1493;51.496;7.210;2023-06-19T12:09:30;4.97;;;3.57;;
2966;SDS011;1493;51.496;7.210;2023-06-19T12:11:57;5.20;;;3.47;;
2966;SDS011;1493;51.496;7.210;2023-06-19T12:14:25;6.20;;;3.90;;
2966;SDS011;1493;51.496;7.210;2023-06-19T12:16:52;5.20;;;3.77;;
2966;SDS011;1493;51.496;7.210;2023-06-19T12:19:21;5.00;;;3.57;;
2966;SDS011;1493;51.496;7.210;2023-06-19T12:21:48;3.83;;;3.10;;
2966;SDS011;1493;51.496;7.210;2023-06-19T12:24:15;4.80;;;3.63;;
2966;SDS011;1493;51.496;7.210;2023-06-19T12:26:43;5.60;;;3.60;;
2966;SDS011;1493;51.496;7.210;2023-06-19T12:29:10;5.17;;;3.83;;
2966;SDS011;1493;51.496;7.210;2023-06-19T12:31:37;5.40;;;3.20;;
2966;SDS011;1493;51.496;7.210;2023-06-19T12:34:04;6.57;;;3.10;;
2966;SDS011;1493;51.496;7.210;2023-06-19T12:36:31;4.20;;;3.50;;
2966;SDS011;1493;51.496;7.210;2023-06-19T12:38:59;5.13;;;3.77;;
2966;SDS011;1493;51.496;7.210;2023-06-19T12:41:28;4.17;;;3.43;;
2966;SDS011;1493;51.496;7.210;2023-06-19T12:43:56;5.70;;;3.83;;
2966;SDS011;1493;51.496;7.210;2023-06-19T12:46:23;4.50;;;3.47;;
2966;SDS011;1493;51.496;7.210;2023-06-19T12:48:50;4.50;;;4.00;;
2966;SDS011;1493;51.496;7.210;2023-06-19T12:51:17;4.77;;;3.80;;
2966;SDS011;1493;51.496;7.210;2023-06-19T12:53:44;5.80;;;4.43;;
2966;SDS011;1493;51.496;7.210;2023-06-19T12:56:12;4.93;;;4.13;;
2966;SDS011;1493;51.496;7.210;2023-06-19T12:58:38;6.67;;;4.27;;
2966;SDS011;1493;51.496;7.210;2023-06-19T13:01:06;5.13;;;3.80;;
2966;SDS011;1493;51.496;7.210;2023-06-19T13:03:33;4.37;;;3.87;;
2966;SDS011;1493;51.496;7.210;2023-06-19T13:06:00;6.40;;;3.83;;
2966;SDS011;1493;51.496;7.210;2023-06-19T13:08:27;6.03;;;3.53;;
2966;SDS011;1493;51.496;7.210;2023-06-19T13:10:54;5.20;;;3.67;;
2966;SDS011;1493;51.496;7.210;2023-06-19T13:13:21;5.00;;;4.00;;
2966;SDS011;1493;51.496;7.210;2023-06-19T13:15:48;4.33;;;3.27;;
2966;SDS011;1493;51.496;7.210;2023-06-19T13:18:17;5.40;;;3.97;;
2966;SDS011;1493;51.496;7.210;2023-06-19T13:20:44;7.07;;;4.07;;
2966;SDS011;1493;51.496;7.210;2023-06-19T13:23:13;6.67;;;4.83;;
2966;SDS011;1493;51.496;7.210;2023-06-19T13:25:39;5.97;;;4.17;;
2966;SDS011;1493;51.496;7.210;2023-06-19T13:28:06;5.40;;;3.97;;
2966;SDS011;1493;51.496;7.210;2023-06-19T13:30:33;5.40;;;4.33;;
2966;SDS011;1493;51.496;7.210;2023-06-19T13:33:00;5.30;;;3.93;;
2966;SDS011;1493;51.496;7.210;2023-06-19T13:35:29;4.80;;;3.60;;
2966;SDS011;1493;51.496;7.210;2023-06-19T13:37:56;5.03;;;3.63;;
2966;SDS011;1493;51.496;7.210;2023-06-19T13:40:24;5.90;;;3.90;;
2966;SDS011;1493;51.496;7.210;2023-06-19T13:42:51;6.27;;;4.20;;
2966;SDS011;1493;51.496;7.210;2023-06-19T13:45:18;7.70;;;3.67;;
2966;SDS011;1493;51.496;7.210;2023-06-19T13:47:45;6.40;;;4.50;;
2966;SDS011;1493;51.496;7.210;2023-06-19T13:50:12;5.53;;;4.23;;
2966;SDS011;1493;51.496;7.210;2023-06-19T13:52:44;4.30;;;3.90;;
2966;SDS011;1493;51.496;7.210;2023-06-19T13:55:11;6.17;;;4.47;;
2966;SDS011;1493;51.496;7.210;2023-06-19T13:57:39;5.83;;;4.30;;
2966;SDS011;1493;51.496;7.210;2023-06-19T14:00:06;6.70;;;4.33;;
2966;SDS011;1493;51.496;7.210;2023-06-19T14:02:35;7.17;;;4.07;;
2966;SDS011;1493;51.496;7.210;2023-06-19T14:05:02;5.07;;;3.70;;
2966;SDS011;1493;51.496;7.210;2023-06-19T14:07:29;5.37;;;3.80;;
2966;SDS011;1493;51.496;7.210;2023-06-19T14:10:00;5.60;;;3.90;;
2966;SDS011;1493;51.496;7.210;2023-06-19T14:12:28;5.13;;;4.10;;
2966;SDS011;1493;51.496;7.210;2023-06-19T14:14:55;5.47;;;4.30;;
2966;SDS011;1493;51.496;7.210;2023-06-19T14:17:22;6.13;;;3.70;;
2966;SDS011;1493;51.496;7.210;2023-06-19T14:19:49;5.50;;;4.13;;
2966;SDS011;1493;51.496;7.210;2023-06-19T14:22:16;5.60;;;4.20;;
2966;SDS011;1493;51.496;7.210;2023-06-19T14:24:43;4.83;;;3.77;;
2966;SDS011;1493;51.496;7.210;2023-06-19T14:27:12;6.30;;;3.97;;
2966;SDS011;1493;51.496;7.210;2023-06-19T14:29:39;7.30;;;4.63;;
2966;SDS011;1493;51.496;7.210;2023-06-19T14:32:06;4.43;;;3.80;;
2966;SDS011;1493;51.496;7.210;2023-06-19T14:34:33;7.93;;;3.90;;
2966;SDS011;1493;51.496;7.210;2023-06-19T14:36:59;5.00;;;4.10;;
2966;SDS011;1493;51.496;7.210;2023-06-19T14:39:26;5.03;;;4.27;;
2966;SDS011;1493;51.496;7.210;2023-06-19T14:41:53;4.70;;;4.00;;
2966;SDS011;1493;51.496;7.210;2023-06-19T14:44:24;4.87;;;3.87;;
2966;SDS011;1493;51.496;7.210;2023-06-19T14:46:50;6.07;;;4.03;;
2966;SDS011;1493;51.496;7.210;2023-06-19T14:49:18;4.80;;;3.63;;
2966;SDS011;1493;51.496;7.210;2023-06-19T14:51:46;4.10;;;3.60;;
2966;SDS011;1493;51.496;7.210;2023-06-19T14:54:13;4.90;;;4.10;;
2966;SDS011;1493;51.496;7.210;2023-06-19T14:56:42;4.33;;;3.03;;
2966;SDS011;1493;51.496;7.210;2023-06-19T14:59:09;4.17;;;3.43;;
2966;SDS011;1493;51.496;7.210;2023-06-19T15:01:37;4.87;;;3.70;;
2966;SDS011;1493;51.496;7.210;2023-06-19T15:04:05;5.80;;;4.03;;
2966;SDS011;1493;51.496;7.210;2023-06-19T15:06:32;3.87;;;3.43;;
2966;SDS011;1493;51.496;7.210;2023-06-19T15:08:59;3.80;;;3.20;;
2966;SDS011;1493;51.496;7.210;2023-06-19T15:11:26;6.00;;;3.90;;
2966;SDS011;1493;51.496;7.210;2023-06-19T15:13:52;4.00;;;3.57;;
2966;SDS011;1493;51.496;7.210;2023-06-19T15:16:19;4.07;;;3.67;;
2966;SDS011;1493;51.496;7.210;2023-06-19T15:18:49;4.27;;;3.67;;
2966;SDS011;1493;51.496;7.210;2023-06-19T15:21:16;8.20;;;3.07;;
2966;SDS011;1493;51.496;7.210;2023-06-19T15:23:44;3.90;;;3.50;;
2966;SDS011;1493;51.496;7.210;2023-06-19T15:26:11;4.47;;;3.50;;
2966;SDS011;1493;51.496;7.210;2023-06-19T15:28:38;4.23;;;3.37;;
2966;SDS011;1493;51.496;7.210;2023-06-19T15:31:05;4.03;;;3.53;;
2966;SDS011;1493;51.496;7.210;2023-06-19T15:33:33;4.97;;;3.93;;
2966;SDS011;1493;51.496;7.210;2023-06-19T15:36:06;4.57;;;3.80;;
2966;SDS011;1493;51.496;7.210;2023-06-19T15:38:32;4.10;;;3.60;;
2966;SDS011;1493;51.496;7.210;2023-06-19T15:41:00;5.63;;;4.10;;
2966;SDS011;1493;51.496;7.210;2023-06-19T15:43:27;5.33;;;3.90;;
2966;SDS011;1493;51.496;7.210;2023-06-19T15:45:55;5.47;;;4.10;;
2966;SDS011;1493;51.496;7.210;2023-06-19T15:48:22;5.03;;;3.70;;
2966;SDS011;1493;51.496;7.210;2023-06-19T15:50:49;4.70;;;3.87;;
2966;SDS011;1493;51.496;7.210;2023-06-19T15:53:18;5.53;;;3.90;;
2966;SDS011;1493;51.496;7.210;2023-06-19T15:55:44;4.80;;;3.60;;
2966;SDS011;1493;51.496;7.210;2023-06-19T15:58:11;5.20;;;4.17;;
2966;SDS011;1493;51.496;7.210;2023-06-19T16:00:38;4.50;;;3.33;;
2966;SDS011;1493;51.496;7.210;2023-06-19T16:03:06;4.50;;;2.93;;
2966;SDS011;1493;51.496;7.210;2023-06-19T16:05:33;5.87;;;3.40;;
2966;SDS011;1493;51.496;7.210;2023-06-19T16:08:00;4.67;;;3.40;;